KJRB/JRB METAR and TAF weather

Enter ICAO airport designator
Station Type Date Time Source
KJRB METAR 2021/03/05 18:56 UTC NOAA

KJRB 051856Z AUTO VRB04KT 10SM CLR 05/M13 A2986 RMK AO2 SLP110 T00501133


Station Type Date Time Source
KJRB Decoded METAR 2021/03/05 18:56 UTC NOAA

Station name not available
Mar 05, 2021 - 01:56 PM EST / 2021.03.05 1856 UTC
Wind: Variable at 5 MPH (4 KT):0
Visibility: 10 mile(s):0
Sky conditions: clear
Temperature: 41.0 F (5.0 C)
Dew Point: 8.1 F (-13.3 C)
Relative Humidity: 25%
Pressure (altimeter): 29.86 in. Hg (1011 hPa)
ob: KJRB 051856Z AUTO VRB04KT 10SM CLR 05/M13 A2986 RMK AO2 SLP110 T00501133
cycle: 19

Station Type Date Time Source
KJRB TAF UTC NOAA

Error!

Example: see airport list